Time;durP1;ratioP1;P1;durP2;ratioP2;P2;SDS_P1;SDS_P2;PMS_P1;PMS_P2;Temp;Humidity;BMP_temperature;BMP_pressure;BME280_temperature;BME280_humidity;BME280_pressure;Samples;Min_cycle;Max_cycle;Signal;HPM_P1;HPM_P2
2024/03/07 00:01:31;;;;;;;38.30;19.10;;;;;;;0.71;100.00;101621.18;215012;1284;99250;-86
2024/03/07 00:06:33;;;;;;;44.90;20.20;;;;;;;0.66;100.00;101620.46;214590;1285;140855;-86
2024/03/07 00:11:33;;;;;;;38.60;19.10;;;;;;;0.62;100.00;101618.23;215037;1286;139213;-86
2024/03/07 00:16:34;;;;;;;39.80;20.00;;;;;;;0.58;100.00;101623.72;214509;1286;141599;-86
2024/03/07 00:21:35;;;;;;;42.30;19.60;;;;;;;0.54;100.00;101623.30;215085;1287;139208;-85
2024/03/07 00:26:35;;;;;;;37.50;20.00;;;;;;;0.49;100.00;101620.48;214738;1286;140412;-86
2024/03/07 00:31:35;;;;;;;41.80;19.90;;;;;;;0.44;100.00;101622.41;215537;1286;98072;-85
2024/03/07 00:36:36;;;;;;;44.30;20.90;;;;;;;0.40;100.00;101625.52;215524;1286;142322;-86
2024/03/07 00:41:36;;;;;;;40.50;20.30;;;;;;;0.34;100.00;101622.04;215183;1285;138849;-85
2024/03/07 00:46:37;;;;;;;43.00;20.30;;;;;;;0.29;100.00;101618.34;214554;1286;140694;-86
2024/03/07 00:51:39;;;;;;;40.80;20.30;;;;;;;0.25;100.00;101618.95;214516;1286;139040;-86
2024/03/07 00:56:39;;;;;;;47.00;20.10;;;;;;;0.20;100.00;101616.11;214208;1286;140268;-86
2024/03/07 01:01:41;;;;;;;40.20;20.00;;;;;;;0.15;100.00;101610.62;214765;1287;98109;-86
2024/03/07 01:06:42;;;;;;;41.00;19.40;;;;;;;0.10;100.00;101614.77;214954;1286;140726;-86
2024/03/07 01:11:47;;;;;;;42.20;19.40;;;;;;;0.06;100.00;101608.72;214415;1286;138834;-86
2024/03/07 01:16:48;;;;;;;40.80;19.50;;;;;;;0.04;100.00;101608.09;214074;1287;141686;-86
2024/03/07 01:21:49;;;;;;;44.70;20.30;;;;;;;0.05;100.00;101609.81;214659;1287;139057;-86
2024/03/07 01:26:49;;;;;;;42.60;20.30;;;;;;;0.09;100.00;101608.59;214613;1286;140479;-86
2024/03/07 01:31:50;;;;;;;43.40;20.50;;;;;;;0.14;100.00;101612.09;214742;1286;97968;-86
2024/03/07 01:36:50;;;;;;;43.00;18.90;;;;;;;0.16;100.00;101610.89;214537;1285;140571;-86
2024/03/07 01:41:51;;;;;;;42.10;20.10;;;;;;;0.18;100.00;101613.86;214713;1287;138847;-86
2024/03/07 01:46:51;;;;;;;40.80;19.70;;;;;;;0.17;100.00;101613.70;214011;1286;141971;-86
2024/03/07 01:51:51;;;;;;;39.80;18.40;;;;;;;0.15;100.00;101617.22;214646;1285;139247;-86
2024/03/07 01:56:52;;;;;;;38.80;18.20;;;;;;;0.14;100.00;101610.79;214513;1285;140120;-86
2024/03/07 02:01:52;;;;;;;38.30;17.90;;;;;;;0.12;100.00;101612.98;214801;1286;97847;-86
2024/03/07 02:06:55;;;;;;;39.80;19.40;;;;;;;0.09;100.00;101613.04;214268;1287;140700;-86
2024/03/07 02:11:56;;;;;;;40.90;19.60;;;;;;;0.08;100.00;101614.13;214675;1290;139208;-85
2024/03/07 02:16:56;;;;;;;40.30;18.60;;;;;;;0.03;100.00;101617.77;214758;1287;140504;-85
2024/03/07 02:21:56;;;;;;;44.10;18.50;;;;;;;-0.02;100.00;101614.55;215062;1285;139299;-85
2024/03/07 02:26:59;;;;;;;46.40;19.60;;;;;;;-0.05;100.00;101619.06;214678;1285;140542;-86
2024/03/07 02:31:59;;;;;;;39.90;18.20;;;;;;;-0.08;100.00;101619.02;215195;1285;98056;-85
2024/03/07 02:37:00;;;;;;;38.70;19.00;;;;;;;-0.12;100.00;101616.11;214743;1288;142522;-86
2024/03/07 02:42:00;;;;;;;36.70;18.50;;;;;;;-0.16;100.00;101616.89;214897;1286;139903;-85
2024/03/07 02:47:03;;;;;;;38.80;18.70;;;;;;;-0.21;100.00;101621.02;214228;1287;140982;-86
2024/03/07 02:52:07;;;;;;;35.80;17.70;;;;;;;-0.25;100.00;101624.40;215415;1285;139673;-86
2024/03/07 02:57:07;;;;;;;37.50;17.90;;;;;;;-0.31;100.00;101621.44;214679;1285;140878;-85
2024/03/07 03:02:08;;;;;;;32.40;16.50;;;;;;;-0.36;100.00;101623.20;215201;1284;97971;-86
2024/03/07 03:07:08;;;;;;;41.40;17.50;;;;;;;-0.40;100.00;101624.67;214789;1285;140973;-85
2024/03/07 03:12:09;;;;;;;34.50;17.00;;;;;;;-0.45;100.00;101618.58;215161;1285;139727;-86
2024/03/07 03:17:11;;;;;;;35.80;15.20;;;;;;;-0.50;100.00;101623.50;214566;1285;140683;-87
2024/03/07 03:22:11;;;;;;;32.10;16.30;;;;;;;-0.55;100.00;101619.80;215077;1288;140040;-86
2024/03/07 03:27:12;;;;;;;33.50;16.40;;;;;;;-0.59;100.00;101619.58;214383;1287;140655;-87
2024/03/07 03:32:12;;;;;;;42.40;20.40;;;;;;;-0.63;100.00;101621.98;214682;1285;139428;-85
2024/03/07 03:37:13;;;;;;;34.40;16.80;;;;;;;-0.68;100.00;101623.66;214294;1286;141462;-86
2024/03/07 03:42:14;;;;;;;38.10;17.60;;;;;;;-0.73;100.00;101619.94;214629;1285;139741;-86
2024/03/07 03:47:14;;;;;;;41.40;18.40;;;;;;;-0.76;100.00;101620.21;214128;1288;141537;-86
2024/03/07 03:52:15;;;;;;;34.00;16.70;;;;;;;-0.80;100.00;101618.33;215038;1288;140022;-87
2024/03/07 03:57:18;;;;;;;37.00;16.30;;;;;;;-0.82;100.00;101615.79;214638;1286;140800;-87
2024/03/07 04:02:19;;;;;;;38.80;18.70;;;;;;;-0.85;100.00;101616.77;215058;1286;140086;-88
2024/03/07 04:07:19;;;;;;;41.80;18.80;;;;;;;-0.88;100.00;101617.70;215192;1285;140587;-87
2024/03/07 04:12:20;;;;;;;43.80;21.20;;;;;;;-0.93;100.00;101617.97;216252;1285;139508;-88
2024/03/07 04:17:20;;;;;;;37.00;17.70;;;;;;;-0.97;100.00;101617.05;215560;1285;140598;-87
2024/03/07 04:22:21;;;;;;;42.70;19.50;;;;;;;-1.00;100.00;101616.69;216004;1285;139549;-89
2024/03/07 04:27:22;;;;;;;38.30;18.00;;;;;;;-1.03;100.00;101617.38;214853;1288;140589;-87
2024/03/07 04:32:23;;;;;;;37.40;19.50;;;;;;;-1.05;100.00;101612.63;215661;1290;139428;-88
2024/03/07 04:37:23;;;;;;;38.40;20.30;;;;;;;-1.08;100.00;101615.23;215341;1290;140769;-88
2024/03/07 04:42:24;;;;;;;34.90;16.50;;;;;;;-1.09;100.00;101617.34;215648;1287;140046;-88
2024/03/07 04:47:24;;;;;;;41.80;19.10;;;;;;;-1.11;100.00;101614.15;214289;1286;151711;-87
2024/03/07 04:52:25;;;;;;;49.20;21.50;;;;;;;-1.14;100.00;101621.81;214731;1285;139947;-87
2024/03/07 04:57:27;;;;;;;38.80;18.80;;;;;;;-1.16;100.00;101614.91;214533;1285;140921;-87
2024/03/07 05:02:27;;;;;;;44.00;19.10;;;;;;;-1.19;100.00;101614.31;215010;1285;139996;-87
2024/03/07 05:07:28;;;;;;;35.90;16.90;;;;;;;-1.22;100.00;101612.42;214594;1288;141104;-88
2024/03/07 05:12:28;;;;;;;43.30;19.00;;;;;;;-1.25;100.00;101612.48;215104;1286;139934;-87
2024/03/07 05:17:28;;;;;;;43.50;18.90;;;;;;;-1.27;100.00;101614.31;214560;1285;140909;-88
2024/03/07 05:22:30;;;;;;;47.20;19.80;;;;;;;-1.29;100.00;101621.01;214963;1285;139887;-88
2024/03/07 05:27:30;;;;;;;59.40;23.40;;;;;;;-1.33;100.00;101618.96;214438;1286;140675;-88
2024/03/07 05:32:32;;;;;;;57.00;22.30;;;;;;;-1.34;100.00;101621.54;214949;1285;139883;-88
2024/03/07 05:37:33;;;;;;;53.70;22.60;;;;;;;-1.35;100.00;101630.36;214611;1286;140501;-88
2024/03/07 05:42:33;;;;;;;56.40;22.10;;;;;;;-1.36;100.00;101637.58;215017;1285;139750;-89
2024/03/07 05:47:34;;;;;;;48.80;21.40;;;;;;;-1.36;100.00;101643.32;214333;1287;140820;-89
2024/03/07 05:52:35;;;;;;;46.50;20.60;;;;;;;-1.35;100.00;101648.83;214612;1285;139491;-89
2024/03/07 05:57:35;;;;;;;47.70;23.10;;;;;;;-1.33;100.00;101657.34;214461;1285;140953;-89
2024/03/07 06:02:36;;;;;;;52.50;22.50;;;;;;;-1.32;100.00;101662.64;214464;1285;141241;-89
2024/03/07 06:07:36;;;;;;;64.70;25.30;;;;;;;-1.30;100.00;101659.25;214744;1285;141269;-89
2024/03/07 06:12:39;;;;;;;50.30;21.30;;;;;;;-1.27;100.00;101661.26;215353;1288;139502;-88
2024/03/07 06:17:40;;;;;;;53.10;23.50;;;;;;;-1.23;100.00;101661.58;215081;1286;140440;-88
2024/03/07 06:22:42;;;;;;;89.80;32.50;;;;;;;-1.18;100.00;101673.04;215247;1288;140003;-89
2024/03/07 06:27:48;;;;;;;104.30;33.20;;;;;;;-1.14;100.00;101671.14;215265;1286;140580;-89
2024/03/07 06:32:49;;;;;;;126.20;38.20;;;;;;;-1.09;100.00;101677.24;214889;1286;140300;-87
2024/03/07 06:37:49;;;;;;;100.40;32.60;;;;;;;-1.02;100.00;101676.13;214297;1287;140747;-87
2024/03/07 06:42:50;;;;;;;94.00;36.30;;;;;;;-0.96;100.00;101684.27;214799;1287;140074;-88
2024/03/07 06:47:52;;;;;;;56.80;24.30;;;;;;;-0.88;100.00;101687.73;214772;1286;143139;-87
2024/03/07 06:52:53;;;;;;;50.50;23.00;;;;;;;-0.80;100.00;101688.01;215228;1286;140091;-88
2024/03/07 06:57:54;;;;;;;45.80;21.70;;;;;;;-0.71;100.00;101692.98;215071;1286;140666;-88
2024/03/07 07:02:54;;;;;;;41.50;19.40;;;;;;;-0.62;100.00;101700.25;215316;1285;140696;-89
2024/03/07 07:07:55;;;;;;;42.90;20.40;;;;;;;-0.52;100.00;101705.88;215290;1287;140509;-88
2024/03/07 07:12:55;;;;;;;44.20;20.70;;;;;;;-0.41;100.00;101703.31;216322;1285;139964;-88
2024/03/07 07:17:56;;;;;;;42.10;20.90;;;;;;;-0.30;100.00;101701.18;215310;1288;140932;-88
2024/03/07 07:22:57;;;;;;;46.20;21.20;;;;;;;-0.18;100.00;101701.64;215559;1288;140316;-87
2024/03/07 07:27:58;;;;;;;53.20;23.00;;;;;;;-0.04;100.00;101705.17;215129;1288;140838;-88
2024/03/07 07:32:58;;;;;;;51.20;22.50;;;;;;;0.12;100.00;101704.23;215608;1288;139420;-88
2024/03/07 07:37:59;;;;;;;58.70;22.80;;;;;;;0.29;100.00;101710.23;214891;1287;140452;-86
2024/03/07 07:43:01;;;;;;;44.00;20.20;;;;;;;0.50;100.00;101710.39;215095;1288;139343;-87
2024/03/07 07:48:02;;;;;;;45.40;19.30;;;;;;;0.66;100.00;101705.21;214163;1288;140742;-86
2024/03/07 07:53:07;;;;;;;43.60;19.70;;;;;;;0.85;100.00;101706.77;214935;1285;139498;-87
2024/03/07 07:58:07;;;;;;;41.00;19.00;;;;;;;1.04;100.00;101709.34;214352;1289;140244;-86
2024/03/07 08:03:09;;;;;;;41.00;20.70;;;;;;;1.18;100.00;101704.56;214898;1290;139166;-85
2024/03/07 08:08:11;;;;;;;44.70;20.50;;;;;;;1.37;100.00;101701.09;214804;1285;140110;-85
2024/03/07 08:13:13;;;;;;;159.80;55.50;;;;;;;1.57;100.00;101699.97;215197;1287;139820;-84
2024/03/07 08:18:13;;;;;;;51.20;23.10;;;;;;;1.81;100.00;101701.73;214730;1285;140782;-85
2024/03/07 08:23:14;;;;;;;37.40;18.00;;;;;;;2.06;100.00;101703.23;215097;1286;140206;-84
2024/03/07 08:28:14;;;;;;;48.80;18.80;;;;;;;2.30;100.00;101705.71;214405;1287;249125;-84
2024/03/07 08:33:15;;;;;;;31.90;16.30;;;;;;;2.57;100.00;101706.16;214822;1286;139087;-86
2024/03/07 08:38:16;;;;;;;32.70;16.00;;;;;;;2.73;100.00;101701.42;214194;1290;140745;-84
2024/03/07 08:43:16;;;;;;;35.20;17.10;;;;;;;2.94;100.00;101709.59;215102;1288;97963;-83
2024/03/07 08:48:17;;;;;;;44.20;18.50;;;;;;;3.21;100.00;101713.17;214561;1288;139886;-85
2024/03/07 08:53:18;;;;;;;36.60;16.30;;;;;;;3.51;100.00;101714.91;215033;1288;139450;-86
2024/03/07 08:58:19;;;;;;;33.50;15.20;;;;;;;3.75;99.39;101712.67;214669;1285;140735;-86
2024/03/07 09:03:21;;;;;;;30.70;15.50;;;;;;;3.97;99.85;101713.98;215008;1285;139614;-84
2024/03/07 09:08:22;;;;;;;30.20;15.50;;;;;;;4.22;97.14;101709.61;214695;1285;140326;-84
2024/03/07 09:13:22;;;;;;;30.10;15.90;;;;;;;4.50;94.11;101713.29;215062;1288;98064;-84
2024/03/07 09:18:24;;;;;;;27.20;14.10;;;;;;;4.80;93.69;101709.98;214503;1285;140064;-83
2024/03/07 09:23:24;;;;;;;25.80;15.10;;;;;;;5.09;89.83;101708.88;215057;1284;139940;-84
2024/03/07 09:28:25;;;;;;;31.50;15.20;;;;;;;5.46;91.85;101709.04;214575;1285;141063;-85
2024/03/07 09:33:25;;;;;;;28.90;16.10;;;;;;;5.85;87.19;101704.67;214995;1286;139607;-83
2024/03/07 09:38:27;;;;;;;31.30;15.50;;;;;;;6.04;85.29;101703.84;214195;1286;139821;-85
2024/03/07 09:43:29;;;;;;;34.70;15.90;;;;;;;6.57;89.76;101691.56;215202;1288;97935;-83
2024/03/07 09:48:30;;;;;;;38.60;17.30;;;;;;;7.29;89.14;101693.96;214557;1288;141134;-84
2024/03/07 09:53:32;;;;;;;41.70;19.50;;;;;;;7.74;83.05;101696.64;215037;1285;139320;-84
2024/03/07 09:58:34;;;;;;;26.20;14.50;;;;;;;7.84;83.27;101700.52;214410;1288;141906;-85
2024/03/07 10:03:35;;;;;;;25.70;14.10;;;;;;;8.13;80.15;101702.67;215082;1285;139350;-84
2024/03/07 10:08:36;;;;;;;28.50;15.40;;;;;;;8.15;77.06;101696.59;214540;1286;142000;-85
2024/03/07 10:13:37;;;;;;;26.50;14.60;;;;;;;8.25;73.85;101689.33;215021;1285;97992;-85
2024/03/07 10:18:42;;;;;;;25.30;12.90;;;;;;;8.33;73.56;101692.10;214158;1286;139966;-84
2024/03/07 10:23:44;;;;;;;25.50;12.00;;;;;;;8.38;70.69;101686.58;216124;1287;138756;-86
2024/03/07 10:28:44;;;;;;;28.00;14.40;;;;;;;8.37;69.56;101684.98;214344;1286;139782;-84
2024/03/07 10:33:45;;;;;;;49.80;18.50;;;;;;;8.32;67.63;101680.45;214747;1286;138144;-84
2024/03/07 10:38:45;;;;;;;35.10;16.10;;;;;;;8.36;66.26;101673.79;214461;1285;139376;-86
2024/03/07 10:43:56;;;;;;;40.00;16.30;;;;;;;8.45;66.54;101677.27;215187;1285;96715;-84
2024/03/07 10:49:01;;;;;;;35.30;17.60;;;;;;;8.54;68.64;101667.91;214592;1285;139684;-85
2024/03/07 10:54:22;;;;;;;28.20;14.00;;;;;;;8.82;67.94;101664.94;215605;1288;137953;-86
2024/03/07 10:59:27;;;;;;;25.80;14.60;;;;;;;8.97;66.68;101661.58;215483;1284;139866;-84
2024/03/07 11:04:29;;;;;;;24.30;13.60;;;;;;;9.12;68.00;101664.58;215792;1284;138745;-84
2024/03/07 11:09:33;;;;;;;25.20;14.20;;;;;;;9.48;68.15;101659.27;214705;1285;140003;-86
2024/03/07 11:14:36;;;;;;;24.60;13.10;;;;;;;9.62;68.18;101649.40;214795;1286;138321;-85
2024/03/07 11:19:38;;;;;;;32.20;14.10;;;;;;;9.74;67.24;101646.36;214756;1286;139268;-84
2024/03/07 11:24:38;;;;;;;22.50;13.20;;;;;;;9.68;64.03;101649.30;214967;1288;139992;-88
2024/03/07 11:29:52;;;;;;;25.20;13.80;;;;;;;9.55;64.14;101651.34;214523;1284;140565;-85
2024/03/07 11:34:54;;;;;;;24.00;13.20;;;;;;;9.49;61.77;101642.02;214933;1285;138723;-84
2024/03/07 11:39:57;;;;;;;24.40;13.90;;;;;;;9.42;64.64;101635.05;214702;1285;139761;-85
2024/03/07 11:44:59;;;;;;;26.50;13.60;;;;;;;9.44;64.42;101628.90;214847;1285;138135;-84
2024/03/07 11:49:59;;;;;;;25.20;12.10;;;;;;;9.43;65.29;101625.25;214436;1285;139337;-85
2024/03/07 11:55:03;;;;;;;25.70;13.00;;;;;;;9.42;64.99;101626.64;215032;1285;138100;-86
2024/03/07 12:00:10;;;;;;;25.40;14.10;;;;;;;9.35;62.58;101619.02;214450;1284;139100;-84
2024/03/07 12:05:15;;;;;;;26.50;12.50;;;;;;;9.05;61.69;101615.36;214900;1285;138962;-84
2024/03/07 12:10:16;;;;;;;23.30;11.90;;;;;;;8.90;63.36;101614.08;214493;1284;139162;-84
2024/03/07 12:15:19;;;;;;;19.90;10.60;;;;;;;8.86;63.13;101605.22;214941;1287;138121;-85
2024/03/07 12:20:33;;;;;;;28.10;14.80;;;;;;;8.68;60.60;101608.34;214651;1286;139794;-83
2024/03/07 12:25:34;;;;;;;28.40;13.90;;;;;;;8.64;63.16;101598.85;214958;1286;97928;-84
2024/03/07 12:30:37;;;;;;;23.40;13.90;;;;;;;8.62;62.43;101590.95;213854;1286;139850;-85
2024/03/07 12:35:38;;;;;;;31.10;14.90;;;;;;;8.56;62.74;101592.13;214383;1287;138145;-84
2024/03/07 12:40:38;;;;;;;36.80;15.10;;;;;;;8.51;62.30;101589.82;214015;1287;139625;-84
2024/03/07 12:45:44;;;;;;;30.00;12.90;;;;;;;8.36;61.11;101586.89;214624;1289;138156;-84
2024/03/07 12:50:53;;;;;;;29.00;13.20;;;;;;;8.31;61.88;101588.58;214150;1284;140436;-83
2024/03/07 12:55:53;;;;;;;22.30;11.00;;;;;;;8.21;61.14;101588.55;215446;1286;105334;-85
2024/03/07 13:00:57;;;;;;;44.50;17.80;;;;;;;8.09;62.49;101582.84;214921;1285;139056;-85
2024/03/07 13:06:01;;;;;;;27.30;14.10;;;;;;;8.00;63.76;101581.05;215152;1286;137998;-87
2024/03/07 13:11:02;;;;;;;24.40;13.20;;;;;;;8.00;65.22;101579.63;214733;1286;139562;-85
2024/03/07 13:16:03;;;;;;;26.50;13.10;;;;;;;7.93;64.67;101578.31;215567;1285;138195;-84
2024/03/07 13:21:03;;;;;;;26.00;13.90;;;;;;;7.84;65.45;101573.05;215060;1284;139904;-85
2024/03/07 13:26:08;;;;;;;26.10;13.30;;;;;;;7.77;67.39;101567.60;215916;1284;97963;-87
2024/03/07 13:31:09;;;;;;;24.30;13.60;;;;;;;7.71;67.14;101565.86;215513;1285;140307;-84
2024/03/07 13:36:10;;;;;;;26.30;13.50;;;;;;;7.67;65.42;101564.27;215877;1284;137999;-86
2024/03/07 13:41:11;;;;;;;36.30;16.10;;;;;;;7.62;66.40;101560.56;214405;1285;139003;-85
2024/03/07 13:46:12;;;;;;;25.60;14.10;;;;;;;7.60;66.90;101554.52;214529;1285;138297;-85
2024/03/07 13:51:15;;;;;;;22.90;12.70;;;;;;;7.51;66.23;101556.20;214058;1286;139424;-86
2024/03/07 13:56:44;;;;;;;26.00;13.00;;;;;;;7.44;66.07;101558.15;214479;1288;138270;-84
2024/03/07 14:02:20;;;;;;;23.80;13.30;;;;;;;7.42;67.47;101556.03;215174;1285;111090;-85
2024/03/07 14:07:42;;;;;;;24.60;13.00;;;;;;;7.39;67.64;101548.09;214578;1284;139706;-86
2024/03/07 14:12:52;;;;;;;31.10;13.80;;;;;;;7.41;68.17;101551.23;215025;1285;138006;-85
2024/03/07 14:18:30;;;;;;;25.90;12.90;;;;;;;7.40;67.76;101549.53;215238;1285;140812;-86
2024/03/07 14:23:49;;;;;;;28.50;14.80;;;;;;;7.37;68.81;101551.23;215751;1284;138260;-86
2024/03/07 14:29:30;;;;;;;30.70;15.60;;;;;;;7.30;67.05;101551.38;214969;1285;139200;-85
2024/03/07 14:34:50;;;;;;;27.80;13.70;;;;;;;7.23;67.63;101546.86;214935;1286;138202;-84
2024/03/07 14:39:55;;;;;;;23.90;12.10;;;;;;;7.19;68.24;101550.08;214058;1284;141054;-85
2024/03/07 14:44:56;;;;;;;23.10;12.70;;;;;;;7.18;67.37;101543.44;215032;1286;139445;-83
2024/03/07 14:49:56;;;;;;;24.10;12.80;;;;;;;7.12;67.65;101540.07;214662;1286;140929;-85
2024/03/07 14:54:57;;;;;;;29.90;14.10;;;;;;;7.03;67.37;101537.59;215257;1284;138523;-84
2024/03/07 14:59:57;;;;;;;26.90;13.90;;;;;;;7.00;67.48;101534.53;214731;1284;139380;-85
2024/03/07 15:04:58;;;;;;;25.10;12.30;;;;;;;6.96;68.97;101528.02;215428;1283;138225;-85
2024/03/07 15:09:59;;;;;;;24.20;12.80;;;;;;;6.91;68.85;101524.31;215826;1285;139232;-87
2024/03/07 15:14:59;;;;;;;21.20;11.60;;;;;;;6.87;68.55;101521.73;216260;1284;138742;-86
2024/03/07 15:20:00;;;;;;;24.80;12.30;;;;;;;6.80;67.94;101521.42;215751;1286;139310;-84
2024/03/07 15:25:02;;;;;;;24.80;12.30;;;;;;;6.74;68.13;101516.83;214974;1287;138342;-84
2024/03/07 15:30:10;;;;;;;23.30;10.80;;;;;;;6.66;67.77;101515.56;214333;1284;139194;-85
2024/03/07 15:35:12;;;;;;;24.40;12.50;;;;;;;6.60;67.54;101513.17;214261;1283;139894;-84
2024/03/07 15:40:14;;;;;;;32.40;17.20;;;;;;;6.50;68.17;101510.06;213731;1288;139783;-84
2024/03/07 15:45:21;;;;;;;33.80;15.20;;;;;;;6.46;69.29;101513.33;214329;1284;138081;-86
2024/03/07 15:50:22;;;;;;;25.40;11.80;;;;;;;6.38;68.80;101510.85;213965;1285;139567;-84
2024/03/07 15:55:27;;;;;;;24.60;12.10;;;;;;;6.33;68.73;101512.23;214513;1285;98318;-85
2024/03/07 16:00:29;;;;;;;25.40;11.50;;;;;;;6.26;69.50;101514.05;213741;1284;138863;-85
2024/03/07 16:05:31;;;;;;;24.70;11.80;;;;;;;6.16;69.85;101517.34;214565;1288;139412;-87
2024/03/07 16:10:33;;;;;;;23.20;11.60;;;;;;;6.08;70.47;101513.19;213969;1285;139441;-84
2024/03/07 16:15:35;;;;;;;22.70;10.90;;;;;;;6.00;70.58;101511.64;214600;1285;138263;-86
2024/03/07 16:20:35;;;;;;;22.60;10.80;;;;;;;5.90;71.12;101514.02;213851;1285;139368;-85
2024/03/07 16:25:39;;;;;;;26.00;12.50;;;;;;;5.80;71.76;101510.87;214429;1285;98014;-85
2024/03/07 16:30:49;;;;;;;23.70;10.90;;;;;;;5.69;71.71;101513.65;214259;1285;139237;-85
2024/03/07 16:35:49;;;;;;;24.50;10.90;;;;;;;5.58;72.32;101518.38;214450;1285;138848;-83
2024/03/07 16:40:51;;;;;;;25.30;12.20;;;;;;;5.47;73.30;101516.73;213694;1285;141129;-85
2024/03/07 16:45:53;;;;;;;28.00;12.40;;;;;;;5.36;73.79;101512.76;214245;1285;138618;-84
2024/03/07 16:50:54;;;;;;;22.00;11.60;;;;;;;5.21;75.01;101514.70;213393;1287;139510;-84
2024/03/07 16:55:54;;;;;;;25.20;12.50;;;;;;;5.08;75.84;101514.69;213858;1286;98973;-84
2024/03/07 17:00:56;;;;;;;24.40;12.10;;;;;;;4.94;76.85;101518.83;213824;1285;140445;-86
2024/03/07 17:05:56;;;;;;;27.70;13.00;;;;;;;4.80;77.98;101517.55;214124;1286;138552;-84
2024/03/07 17:10:57;;;;;;;24.50;12.30;;;;;;;4.64;79.49;101514.86;213664;1285;139713;-85
2024/03/07 17:15:57;;;;;;;24.80;12.40;;;;;;;4.45;80.06;101514.50;214174;1285;138276;-86
2024/03/07 17:20:58;;;;;;;32.70;14.00;;;;;;;4.28;80.38;101521.04;213215;1287;140463;-85
2024/03/07 17:25:58;;;;;;;27.20;13.70;;;;;;;4.15;80.75;101522.59;213757;1286;98167;-86
2024/03/07 17:30:58;;;;;;;27.20;13.60;;;;;;;4.04;81.81;101528.14;213590;1287;139981;-85
2024/03/07 17:35:59;;;;;;;25.70;13.20;;;;;;;3.94;83.32;101527.98;214001;1288;138687;-87
2024/03/07 17:40:59;;;;;;;36.90;20.20;;;;;;;3.81;83.96;101527.94;213285;1285;140065;-86
2024/03/07 17:46:01;;;;;;;45.70;21.50;;;;;;;3.64;84.62;101529.98;213702;1287;138964;-86
2024/03/07 17:51:03;;;;;;;38.40;19.80;;;;;;;3.51;85.14;101533.64;213200;1284;140011;-86
2024/03/07 17:56:06;;;;;;;39.00;20.00;;;;;;;3.39;86.06;101534.59;213913;1286;97964;-87
2024/03/07 18:01:06;;;;;;;43.90;20.80;;;;;;;3.28;86.90;101533.98;213366;1286;140034;-87
2024/03/07 18:06:08;;;;;;;44.80;21.90;;;;;;;3.15;87.47;101534.23;214172;1285;139080;-85
2024/03/07 18:11:12;;;;;;;88.00;41.40;;;;;;;3.01;87.05;101530.54;213516;1285;140734;-86
2024/03/07 18:16:15;;;;;;;63.40;34.80;;;;;;;2.90;87.83;101533.14;214510;1285;138910;-87
2024/03/07 18:21:16;;;;;;;45.90;26.00;;;;;;;2.81;88.81;101536.07;213548;1287;139265;-86
2024/03/07 18:26:18;;;;;;;45.50;24.30;;;;;;;2.72;89.19;101535.21;213584;1286;139673;-86
2024/03/07 18:31:27;;;;;;;48.20;25.50;;;;;;;2.61;89.87;101532.60;214444;1285;99323;-87
2024/03/07 18:36:30;;;;;;;46.80;24.00;;;;;;;2.53;91.05;101534.15;213749;1285;140099;-87
2024/03/07 18:41:31;;;;;;;52.80;26.00;;;;;;;2.44;91.38;101534.02;214154;1285;138961;-87
2024/03/07 18:46:31;;;;;;;58.90;28.70;;;;;;;2.38;92.19;101531.61;213699;1284;140685;-88
2024/03/07 18:51:32;;;;;;;63.30;29.60;;;;;;;2.33;93.11;101529.81;214370;1285;139695;-87
2024/03/07 18:56:33;;;;;;;57.10;28.00;;;;;;;2.30;93.46;101533.44;213649;1288;141183;-86
2024/03/07 19:01:36;;;;;;;52.00;25.30;;;;;;;2.29;93.58;101530.85;214213;1284;98615;-86
2024/03/07 19:06:38;;;;;;;43.60;20.50;;;;;;;2.25;93.95;101532.54;213484;1286;140262;-84
2024/03/07 19:11:45;;;;;;;53.90;21.50;;;;;;;2.19;94.47;101531.16;213898;1285;139657;-85
2024/03/07 19:16:48;;;;;;;52.40;21.80;;;;;;;2.18;95.28;101536.41;213831;1285;140248;-86
2024/03/07 19:21:49;;;;;;;56.10;23.60;;;;;;;2.13;95.49;101536.36;214179;1288;139400;-86
2024/03/07 19:26:49;;;;;;;59.80;26.70;;;;;;;2.06;96.58;101539.77;213608;1284;140387;-86
2024/03/07 19:31:52;;;;;;;69.60;29.90;;;;;;;2.00;97.27;101540.25;214382;1285;98890;-87
2024/03/07 19:36:54;;;;;;;69.70;28.40;;;;;;;1.95;97.47;101540.65;213919;1285;141421;-87
2024/03/07 19:41:54;;;;;;;52.70;23.60;;;;;;;1.95;98.34;101538.96;214316;1285;139495;-87
2024/03/07 19:46:55;;;;;;;51.10;22.00;;;;;;;1.94;98.07;101537.14;213990;1285;142040;-87
2024/03/07 19:51:55;;;;;;;49.10;23.50;;;;;;;1.98;98.39;101533.05;214478;1284;139455;-87
2024/03/07 19:57:03;;;;;;;57.70;24.20;;;;;;;2.05;97.97;101530.78;213653;1287;140639;-87
2024/03/07 20:02:06;;;;;;;51.00;22.40;;;;;;;2.12;97.44;101530.19;213763;1287;108387;-87
2024/03/07 20:07:10;;;;;;;60.70;24.20;;;;;;;2.21;97.17;101527.45;213739;1285;141987;-88
2024/03/07 20:12:11;;;;;;;82.50;26.00;;;;;;;2.25;96.58;101528.80;214308;1284;139378;-89
2024/03/07 20:17:43;;;;;;;121.10;39.10;;;;;;;2.31;96.26;101525.75;212551;1294;636469;-88
2024/03/07 20:22:45;;;;;;;63.70;24.10;;;;;;;2.27;96.12;101532.13;212238;1301;137879;-87
2024/03/07 20:27:52;;;;;;;53.40;20.70;;;;;;;2.21;96.55;101530.80;211620;1293;139674;-87
2024/03/07 20:32:55;;;;;;;127.60;35.60;;;;;;;2.14;96.42;101530.32;212510;1294;138096;-87
2024/03/07 20:37:56;;;;;;;177.60;45.20;;;;;;;2.05;96.83;101532.73;212454;1298;140203;-86
2024/03/07 20:42:57;;;;;;;134.50;39.20;;;;;;;1.97;97.08;101531.15;213123;1293;138492;-86
2024/03/07 20:47:59;;;;;;;108.00;36.10;;;;;;;1.89;97.30;101527.79;212310;1293;139515;-86
2024/03/07 20:53:01;;;;;;;79.00;28.30;;;;;;;1.83;97.67;101525.83;213043;1295;138467;-86
2024/03/07 20:58:01;;;;;;;161.10;47.30;;;;;;;1.76;98.23;101523.91;213316;1294;139257;-86
2024/03/07 21:03:03;;;;;;;105.40;34.40;;;;;;;1.70;98.28;101520.52;213583;1289;138632;-88
2024/03/07 21:08:05;;;;;;;85.50;30.50;;;;;;;1.65;98.59;101518.58;212974;1289;139486;-86
2024/03/07 21:13:05;;;;;;;82.90;29.20;;;;;;;1.60;98.88;101520.12;213273;1294;138924;-86
2024/03/07 21:18:07;;;;;;;84.50;27.80;;;;;;;1.55;99.39;101521.90;212627;1291;139386;-86
2024/03/07 21:23:08;;;;;;;68.60;24.60;;;;;;;1.54;99.74;101520.71;213479;1292;138664;-86
2024/03/07 21:28:09;;;;;;;60.60;22.60;;;;;;;1.50;99.75;101518.50;212674;1292;139008;-86
2024/03/07 21:33:09;;;;;;;55.80;21.40;;;;;;;1.44;99.86;101516.99;213023;1291;138263;-86
2024/03/07 21:38:10;;;;;;;58.80;21.60;;;;;;;1.40;99.98;101509.83;213028;1292;139449;-85
2024/03/07 21:43:11;;;;;;;42.50;19.00;;;;;;;1.35;100.00;101511.52;213111;1291;138638;-86
2024/03/07 21:48:12;;;;;;;48.50;20.20;;;;;;;1.26;100.00;101512.71;212616;1291;139487;-86
2024/03/07 21:53:12;;;;;;;44.90;21.10;;;;;;;1.17;100.00;101513.59;213084;1291;138273;-86
2024/03/07 21:58:13;;;;;;;51.30;21.40;;;;;;;1.09;100.00;101515.45;212585;1294;139444;-86
2024/03/07 22:03:13;;;;;;;52.70;22.50;;;;;;;0.99;100.00;101511.35;213361;1294;138927;-86
2024/03/07 22:08:15;;;;;;;55.90;23.40;;;;;;;0.89;100.00;101509.60;212855;1291;139969;-85
2024/03/07 22:13:16;;;;;;;48.40;20.80;;;;;;;0.81;100.00;101505.17;213265;1291;139481;-85
2024/03/07 22:18:17;;;;;;;52.00;22.50;;;;;;;0.71;100.00;101507.08;212679;1294;139576;-86
2024/03/07 22:23:17;;;;;;;51.00;21.90;;;;;;;0.61;100.00;101508.69;213276;1291;138415;-85
2024/03/07 22:28:18;;;;;;;43.50;20.90;;;;;;;0.54;100.00;101508.86;212978;1292;139351;-85